Time;durP1;ratioP1;P1;durP2;ratioP2;P2;SDS_P1;SDS_P2;PMS_P1;PMS_P2;Temp;Humidity;BMP_temperature;BMP_pressure;BME280_temperature;BME280_humidity;BME280_pressure;Samples;Min_cycle;Max_cycle;Signal;HPM_P1;HPM_P2
2021/12/22 00:01:14;;;;;;;33.70;18.45;;;-1.90;99.90;;;;;;5104829;28;20526;-57
2021/12/22 00:03:45;;;;;;;31.00;18.65;;;-1.90;99.90;;;;;;5108176;28;20039;-58
2021/12/22 00:06:11;;;;;;;33.53;17.60;;;-2.00;99.90;;;;;;5098289;28;20028;-59
2021/12/22 00:08:36;;;;;;;33.35;18.20;;;-2.00;99.90;;;;;;5107038;28;20054;-59
2021/12/22 00:11:02;;;;;;;32.83;17.70;;;-2.00;99.90;;;;;;5098698;28;20040;-58
2021/12/22 00:13:29;;;;;;;33.05;18.15;;;-2.00;99.90;;;;;;5113006;28;20174;-59
2021/12/22 00:15:55;;;;;;;37.83;19.58;;;-2.00;99.90;;;;;;5101944;28;20039;-59
2021/12/22 00:18:21;;;;;;;34.88;19.38;;;-2.00;99.90;;;;;;5092199;28;20035;-58
2021/12/22 00:20:47;;;;;;;36.05;20.00;;;-2.10;99.90;;;;;;5097890;28;20027;-57
2021/12/22 00:23:12;;;;;;;38.05;20.40;;;-2.10;99.90;;;;;;5100599;28;20446;-58
2021/12/22 00:25:38;;;;;;;35.50;20.23;;;-2.00;99.90;;;;;;5108011;28;20055;-59
2021/12/22 00:28:04;;;;;;;30.67;18.15;;;-2.00;99.90;;;;;;5099265;28;20051;-59
2021/12/22 00:30:30;;;;;;;36.00;19.25;;;-2.00;99.90;;;;;;5095440;28;20210;-58
2021/12/22 00:33:02;;;;;;;35.42;19.52;;;-2.10;99.90;;;;;;5101994;28;20078;-60
2021/12/22 00:35:38;;;;;;;30.85;18.48;;;-2.10;99.90;;;;;;5094554;28;20055;-58
2021/12/22 00:38:05;;;;;;;31.05;17.88;;;-2.10;99.90;;;;;;5078542;28;20546;-59
2021/12/22 00:40:31;;;;;;;31.48;18.75;;;-2.10;99.90;;;;;;5081566;28;20387;-58
2021/12/22 00:42:57;;;;;;;32.03;18.02;;;-2.10;99.90;;;;;;5080572;28;20024;-59
2021/12/22 00:45:25;;;;;;;33.78;17.85;;;-2.10;99.90;;;;;;5083546;28;20116;-59
2021/12/22 00:47:50;;;;;;;33.75;17.27;;;-2.20;99.90;;;;;;5086360;28;20379;-59
2021/12/22 00:50:17;;;;;;;31.42;17.33;;;-2.20;99.90;;;;;;5077254;28;20101;-58
2021/12/22 00:52:42;;;;;;;25.25;16.35;;;-2.20;99.90;;;;;;5091727;28;20479;-59
2021/12/22 00:55:09;;;;;;;32.45;16.25;;;-2.20;99.90;;;;;;5089917;28;20038;-59
2021/12/22 00:57:37;;;;;;;26.60;15.80;;;-2.20;99.90;;;;;;5091579;28;20098;-59
2021/12/22 01:00:05;;;;;;;25.55;15.80;;;-2.20;99.90;;;;;;5083749;28;20035;-58
2021/12/22 01:02:31;;;;;;;27.88;15.38;;;-2.30;99.90;;;;;;5082574;28;20075;-59
2021/12/22 01:04:57;;;;;;;25.63;15.23;;;-2.40;99.90;;;;;;5076170;28;20060;-59
2021/12/22 01:07:23;;;;;;;35.33;17.50;;;-2.40;99.90;;;;;;5071583;28;20483;-59
2021/12/22 01:09:48;;;;;;;32.92;17.45;;;-2.40;99.90;;;;;;5084921;28;20043;-58
2021/12/22 01:12:14;;;;;;;29.10;16.83;;;-2.40;99.90;;;;;;5071117;28;20506;-58
2021/12/22 01:14:40;;;;;;;29.38;16.10;;;-2.40;99.90;;;;;;5061315;28;20528;-60
2021/12/22 01:17:10;;;;;;;31.42;17.38;;;-2.40;99.90;;;;;;5090197;28;20439;-58
2021/12/22 01:19:45;;;;;;;33.40;17.65;;;-2.50;99.90;;;;;;5076611;28;20029;-58
2021/12/22 01:25:03;;;;;;;31.92;18.20;;;-2.50;99.90;;;;;;5073493;28;20094;-59
2021/12/22 01:27:36;;;;;;;;;;;-2.50;99.90;;;;;;5086685;28;20036;-58
2021/12/22 01:30:06;;;;;;;32.03;17.63;;;-2.50;99.90;;;;;;5078572;28;19973;-58
2021/12/22 01:32:32;;;;;;;33.63;18.48;;;-2.50;99.90;;;;;;5065956;28;20047;-59
2021/12/22 01:34:57;;;;;;;33.20;18.00;;;-2.50;99.90;;;;;;5078343;28;20407;-59
2021/12/22 01:37:23;;;;;;;35.25;18.85;;;-2.50;99.90;;;;;;5084057;28;20084;-59
2021/12/22 01:39:49;;;;;;;32.65;18.42;;;-2.50;99.90;;;;;;5099432;28;20032;-59
2021/12/22 01:42:15;;;;;;;30.92;18.65;;;-2.50;99.90;;;;;;5106639;28;20067;-59
2021/12/22 01:45:00;;;;;;;32.90;17.33;;;-2.50;99.90;;;;;;5092257;28;20115;-59
2021/12/22 01:50:15;;;;;;;33.20;17.98;;;-2.50;99.90;;;;;;5095702;28;20119;-60
2021/12/22 01:52:41;;;;;;;30.65;16.63;;;-2.50;99.90;;;;;;5096538;28;20086;-59
2021/12/22 01:55:23;;;;;;;31.98;17.77;;;-2.50;99.90;;;;;;5101190;28;20063;-59
2021/12/22 01:57:50;;;;;;;32.28;17.48;;;-2.50;99.90;;;;;;5095824;28;20040;-59
2021/12/22 02:00:19;;;;;;;34.95;18.27;;;-2.50;99.90;;;;;;5091093;28;20070;-59
2021/12/22 02:02:45;;;;;;;35.63;18.73;;;-2.60;99.90;;;;;;5109192;28;20038;-59
2021/12/22 02:05:11;;;;;;;31.92;18.85;;;-2.60;99.90;;;;;;5096477;28;20458;-59
2021/12/22 02:07:37;;;;;;;30.58;17.10;;;-2.60;99.90;;;;;;5085309;28;20410;-58
2021/12/22 02:12:46;;;;;;;33.90;18.30;;;-2.60;99.90;;;;;;5096343;28;20047;-59
2021/12/22 02:15:12;;;;;;;32.63;18.08;;;-2.60;99.90;;;;;;5077718;28;20097;-59
2021/12/22 02:17:39;;;;;;;31.58;17.17;;;-2.60;99.90;;;;;;5090771;28;20391;-59
2021/12/22 02:20:06;;;;;;;29.52;17.02;;;-2.60;99.90;;;;;;5100045;28;20027;-59
2021/12/22 02:22:32;;;;;;;34.22;17.75;;;-2.60;99.90;;;;;;5105713;28;20036;-59
2021/12/22 02:25:04;;;;;;;33.67;18.20;;;-2.70;99.90;;;;;;5104518;28;20111;-58
2021/12/22 02:27:42;;;;;;;32.33;17.35;;;-2.70;99.90;;;;;;5098354;28;20453;-59
2021/12/22 02:30:16;;;;;;;33.50;17.25;;;-2.70;99.90;;;;;;5083190;28;20122;-56
2021/12/22 02:35:14;;;;;;;31.65;18.23;;;-2.80;99.90;;;;;;5096423;28;20313;-59
2021/12/22 02:37:44;;;;;;;31.77;17.33;;;-2.80;99.90;;;;;;5081950;28;20051;-59
2021/12/22 02:40:16;;;;;;;32.63;17.92;;;-2.80;99.90;;;;;;5079460;28;20045;-58
2021/12/22 02:42:46;;;;;;;32.55;17.45;;;-2.90;99.90;;;;;;5087750;28;20035;-59
2021/12/22 02:45:17;;;;;;;32.17;17.25;;;-2.80;99.90;;;;;;5088096;28;20047;-58
2021/12/22 02:47:43;;;;;;;37.20;18.40;;;-2.90;99.90;;;;;;5082447;28;20522;-58
2021/12/22 02:50:11;;;;;;;31.63;16.88;;;-2.90;99.90;;;;;;5078076;28;20037;-59
2021/12/22 02:52:54;;;;;;;34.08;17.55;;;-2.70;99.90;;;;;;5087360;28;20043;-59
2021/12/22 02:55:28;;;;;;;31.52;17.77;;;-2.90;99.90;;;;;;5080115;28;20036;-59
2021/12/22 02:57:59;;;;;;;32.27;17.57;;;-2.90;99.90;;;;;;5067620;28;20049;-60
2021/12/22 03:03:17;;;;;;;36.08;17.88;;;-3.00;99.90;;;;;;5078565;28;20036;-59
2021/12/22 03:05:42;;;;;;;34.45;17.73;;;-3.00;99.90;;;;;;5076076;28;20036;-59
2021/12/22 03:08:08;;;;;;;36.20;18.70;;;-3.00;99.90;;;;;;5086566;28;20360;-59
2021/12/22 03:10:34;;;;;;;31.80;17.27;;;-3.00;99.90;;;;;;5078526;28;20044;-59
2021/12/22 03:13:03;;;;;;;32.92;18.17;;;-3.00;99.90;;;;;;5082805;28;20098;-58
2021/12/22 03:15:29;;;;;;;33.35;17.92;;;-3.10;99.90;;;;;;5082067;28;20483;-58
2021/12/22 03:17:55;;;;;;;40.90;18.80;;;-3.10;99.90;;;;;;5084100;28;20037;-59
2021/12/22 03:20:21;;;;;;;35.45;18.42;;;-3.10;99.90;;;;;;5069960;28;20383;-58
2021/12/22 03:22:47;;;;;;;42.97;18.98;;;-3.10;99.90;;;;;;5086561;28;20040;-59
2021/12/22 03:25:16;;;;;;;34.60;17.73;;;-3.10;99.90;;;;;;5090734;28;20043;-59
2021/12/22 03:27:51;;;;;;;29.33;17.55;;;-3.10;99.90;;;;;;5086594;28;20044;-58
2021/12/22 03:30:21;;;;;;;31.35;18.23;;;-3.10;99.90;;;;;;5075956;28;20040;-59
2021/12/22 03:32:46;;;;;;;33.40;18.52;;;-3.20;99.90;;;;;;5074168;28;20059;-58
2021/12/22 03:35:18;;;;;;;34.35;18.27;;;-3.20;99.90;;;;;;5076757;28;20040;-58
2021/12/22 03:37:49;;;;;;;35.40;18.65;;;-3.00;99.90;;;;;;5076738;28;20094;-59
2021/12/22 03:40:15;;;;;;;35.30;18.05;;;-3.20;99.90;;;;;;5081858;28;20047;-59
2021/12/22 03:42:41;;;;;;;35.13;18.85;;;-3.20;99.90;;;;;;5085285;28;20047;-60
2021/12/22 03:45:07;;;;;;;33.95;17.88;;;-3.20;99.90;;;;;;5090494;28;20399;-59
2021/12/22 03:47:33;;;;;;;32.97;17.55;;;-3.30;99.90;;;;;;5073147;28;20043;-59
2021/12/22 03:49:58;;;;;;;35.13;18.20;;;-3.30;99.90;;;;;;5073413;28;20536;-59
2021/12/22 03:52:24;;;;;;;35.20;17.58;;;-3.30;99.90;;;;;;5075970;28;20036;-59
2021/12/22 03:54:54;;;;;;;37.63;18.58;;;-3.30;99.90;;;;;;5071618;28;20372;-59
2021/12/22 03:57:20;;;;;;;34.85;17.90;;;-3.30;99.90;;;;;;5074717;28;20041;-59
2021/12/22 03:59:46;;;;;;;35.85;17.67;;;-3.30;99.90;;;;;;5072507;28;20029;-59
2021/12/22 04:02:12;;;;;;;36.75;18.35;;;-3.30;99.90;;;;;;5079132;28;20040;-59
2021/12/22 04:04:39;;;;;;;34.28;18.77;;;-3.40;99.90;;;;;;5076878;28;20047;-60
2021/12/22 04:07:04;;;;;;;37.70;18.70;;;-3.40;99.90;;;;;;5074846;28;20055;-59
2021/12/22 04:09:30;;;;;;;33.95;18.48;;;-3.40;99.90;;;;;;5072386;28;20049;-58
2021/12/22 04:11:56;;;;;;;33.75;18.13;;;-3.40;99.90;;;;;;5085212;28;20040;-59
2021/12/22 04:14:22;;;;;;;34.03;18.25;;;-3.40;99.90;;;;;;5083860;28;20074;-59
2021/12/22 04:16:47;;;;;;;34.17;17.75;;;-3.40;99.90;;;;;;5072493;28;20648;-58
2021/12/22 04:19:13;;;;;;;31.02;18.17;;;-3.50;99.90;;;;;;5073470;28;20058;-59
2021/12/22 04:21:39;;;;;;;31.40;16.67;;;-3.50;99.90;;;;;;5081999;28;20082;-59
2021/12/22 04:24:06;;;;;;;36.33;18.20;;;-3.50;99.90;;;;;;5080808;28;20027;-59
2021/12/22 04:26:33;;;;;;;38.92;18.73;;;-3.50;99.90;;;;;;5054214;28;20094;-58
2021/12/22 04:28:59;;;;;;;33.10;18.00;;;-3.50;99.90;;;;;;5073664;28;20373;-59
2021/12/22 04:31:25;;;;;;;32.63;18.30;;;-3.50;99.90;;;;;;5072456;28;20078;-59
2021/12/22 04:33:51;;;;;;;33.55;17.15;;;-3.50;99.90;;;;;;5074347;28;20036;-58
2021/12/22 04:36:17;;;;;;;33.25;17.92;;;-3.60;99.90;;;;;;5072183;28;20514;-58
2021/12/22 04:38:42;;;;;;;38.75;18.70;;;-3.60;99.90;;;;;;5107593;28;20051;-60
2021/12/22 04:41:08;;;;;;;34.67;18.02;;;-3.60;99.90;;;;;;5112713;28;20035;-59
2021/12/22 04:43:34;;;;;;;34.00;17.85;;;-3.60;99.90;;;;;;5110111;28;20036;-59
2021/12/22 04:46:00;;;;;;;37.72;18.38;;;-3.60;99.90;;;;;;5095760;28;20072;-58
2021/12/22 04:48:25;;;;;;;35.10;17.67;;;-3.60;99.90;;;;;;5093866;28;20563;-59
2021/12/22 04:50:51;;;;;;;34.80;18.15;;;-3.60;99.90;;;;;;5098945;28;20118;-58
2021/12/22 04:53:23;;;;;;;33.78;17.38;;;-3.60;99.90;;;;;;5093626;28;20057;-59
2021/12/22 04:55:49;;;;;;;33.38;17.55;;;-3.60;99.90;;;;;;5094332;28;20494;-59
2021/12/22 04:58:14;;;;;;;33.78;18.05;;;-3.60;99.90;;;;;;5088621;28;20123;-60
2021/12/22 05:00:40;;;;;;;32.95;17.55;;;-3.60;99.90;;;;;;5105840;28;20502;-59
2021/12/22 05:03:06;;;;;;;34.83;18.33;;;-3.60;99.90;;;;;;5101001;28;20109;-60
2021/12/22 05:05:33;;;;;;;35.00;17.58;;;-3.60;99.90;;;;;;5081635;28;20526;-59
2021/12/22 05:07:59;;;;;;;36.20;18.50;;;-3.60;99.90;;;;;;5076371;28;20046;-59
2021/12/22 05:10:26;;;;;;;36.35;18.50;;;-3.70;99.90;;;;;;5092464;28;20036;-59
2021/12/22 05:12:52;;;;;;;34.72;17.90;;;-3.70;99.90;;;;;;5091788;28;20043;-58
2021/12/22 05:15:23;;;;;;;29.88;16.85;;;-3.70;99.90;;;;;;5097128;28;20035;-59
2021/12/22 05:20:21;;;;;;;34.80;17.55;;;-3.70;99.90;;;;;;5101073;28;20411;-59
2021/12/22 05:22:47;;;;;;;34.72;17.30;;;-3.70;99.90;;;;;;5103702;28;20128;-58
2021/12/22 05:25:13;;;;;;;36.53;18.40;;;-3.70;99.90;;;;;;5099629;28;20043;-59
2021/12/22 05:27:39;;;;;;;42.78;18.30;;;-3.70;99.90;;;;;;5096030;28;20040;-59
2021/12/22 05:30:07;;;;;;;35.92;18.13;;;-3.70;99.90;;;;;;5099955;28;20032;-58
2021/12/22 05:32:34;;;;;;;30.83;16.77;;;-3.70;99.90;;;;;;5111078;28;20081;-58
2021/12/22 05:35:00;;;;;;;35.10;18.70;;;-3.70;99.90;;;;;;5099028;28;20043;-59
2021/12/22 05:37:26;;;;;;;36.42;17.55;;;-3.70;99.90;;;;;;5090426;28;20453;-59
2021/12/22 05:39:52;;;;;;;32.22;16.95;;;-3.70;99.90;;;;;;5077397;28;20051;-58
2021/12/22 05:42:21;;;;;;;38.65;17.50;;;-3.80;99.90;;;;;;5072038;28;20480;-59
2021/12/22 05:44:46;;;;;;;35.55;17.60;;;-3.80;99.90;;;;;;5073771;28;20028;-59
2021/12/22 05:47:12;;;;;;;38.03;19.05;;;-3.80;99.90;;;;;;5072121;28;20398;-59
2021/12/22 05:49:38;;;;;;;34.70;17.90;;;-3.80;99.90;;;;;;5077725;28;20484;-58
2021/12/22 05:52:04;;;;;;;32.05;17.60;;;-3.80;99.90;;;;;;5073255;28;20044;-58
2021/12/22 05:54:30;;;;;;;32.97;17.75;;;-3.80;99.90;;;;;;5087618;28;20131;-57
2021/12/22 05:56:56;;;;;;;37.60;18.00;;;-3.80;99.90;;;;;;5072141;28;20544;-59
2021/12/22 05:59:21;;;;;;;36.13;18.00;;;-3.80;99.90;;;;;;5070337;28;20085;-59
2021/12/22 06:01:47;;;;;;;36.38;18.20;;;-3.80;99.90;;;;;;5053160;28;20051;-58
2021/12/22 06:04:13;;;;;;;35.72;17.88;;;-3.80;99.90;;;;;;5074633;28;20072;-60
2021/12/22 06:06:38;;;;;;;35.75;18.10;;;-3.80;99.90;;;;;;5066149;28;20032;-59
2021/12/22 06:09:04;;;;;;;39.95;18.00;;;-3.80;99.90;;;;;;5083094;28;20051;-59
2021/12/22 06:11:30;;;;;;;37.97;18.40;;;-3.80;99.90;;;;;;5070480;28;20472;-58
2021/12/22 06:13:57;;;;;;;37.25;18.40;;;-3.80;99.90;;;;;;5090088;28;20040;-58
2021/12/22 06:16:23;;;;;;;38.33;18.05;;;-3.80;99.90;;;;;;5072004;28;20111;-58
2021/12/22 06:18:55;;;;;;;41.10;18.17;;;-3.80;99.90;;;;;;5087848;28;20533;-59
2021/12/22 06:21:21;;;;;;;37.75;17.90;;;-3.80;99.90;;;;;;5074691;28;20036;-58
2021/12/22 06:23:47;;;;;;;39.25;18.40;;;-3.80;99.90;;;;;;5074985;28;20536;-59
2021/12/22 06:26:13;;;;;;;37.60;18.48;;;-3.80;99.90;;;;;;5076397;28;20041;-59
2021/12/22 06:28:38;;;;;;;36.50;17.70;;;-3.80;99.90;;;;;;5074107;28;20119;-59
2021/12/22 06:31:04;;;;;;;38.95;18.35;;;-3.80;99.90;;;;;;5074945;28;20119;-59
2021/12/22 06:33:30;;;;;;;35.97;17.58;;;-3.80;99.90;;;;;;5057639;28;20040;-59
2021/12/22 06:35:56;;;;;;;39.58;17.98;;;-3.70;99.90;;;;;;5078076;28;20886;-58
2021/12/22 06:38:22;;;;;;;36.10;17.63;;;-3.80;99.90;;;;;;5076743;28;20173;-59
2021/12/22 06:40:48;;;;;;;35.08;18.35;;;-3.80;99.90;;;;;;5074386;28;20053;-58
2021/12/22 06:43:15;;;;;;;36.28;17.92;;;-3.80;99.90;;;;;;5078781;28;20506;-59
2021/12/22 06:45:41;;;;;;;38.78;18.20;;;-3.80;99.90;;;;;;5085228;28;20040;-59
2021/12/22 06:48:07;;;;;;;34.22;17.95;;;-3.80;99.90;;;;;;5092924;28;20043;-59
2021/12/22 06:50:32;;;;;;;34.92;16.92;;;-3.80;99.90;;;;;;5081174;28;20044;-59
2021/12/22 06:52:58;;;;;;;36.90;16.98;;;-3.80;99.90;;;;;;5069368;28;20130;-58
2021/12/22 06:55:25;;;;;;;36.15;16.52;;;-3.80;99.90;;;;;;5081432;28;20047;-59
2021/12/22 06:57:51;;;;;;;36.42;17.77;;;-3.90;99.90;;;;;;5093686;28;20522;-59
2021/12/22 07:00:17;;;;;;;34.85;16.88;;;-3.90;99.90;;;;;;5083280;28;20041;-59
2021/12/22 07:02:43;;;;;;;32.63;16.88;;;-3.90;99.90;;;;;;5073538;28;20442;-60
2021/12/22 07:05:11;;;;;;;36.47;17.60;;;-3.90;99.90;;;;;;5074983;28;20029;-59
2021/12/22 07:07:37;;;;;;;40.60;17.58;;;-3.90;99.90;;;;;;5073365;28;20048;-59
2021/12/22 07:10:07;;;;;;;35.08;17.92;;;-4.00;99.90;;;;;;5073797;28;20357;-59
2021/12/22 07:12:34;;;;;;;34.58;18.42;;;-4.00;99.90;;;;;;5073976;28;20375;-59
2021/12/22 07:14:59;;;;;;;40.75;16.70;;;-4.00;99.90;;;;;;5074717;28;20098;-60
2021/12/22 07:17:25;;;;;;;38.75;18.42;;;-4.00;99.90;;;;;;5079204;28;20032;-59
2021/12/22 07:19:51;;;;;;;37.35;18.05;;;-4.10;99.90;;;;;;5079358;28;20028;-59
2021/12/22 07:22:17;;;;;;;39.35;18.75;;;-4.10;99.90;;;;;;5077399;28;20032;-59
2021/12/22 07:24:42;;;;;;;36.80;17.80;;;-4.10;99.90;;;;;;5075454;28;20051;-58
2021/12/22 07:27:08;;;;;;;33.67;16.85;;;-4.10;99.90;;;;;;5073416;28;20457;-58
2021/12/22 07:29:34;;;;;;;35.70;17.98;;;-4.10;99.90;;;;;;5071239;28;20503;-59
2021/12/22 07:31:59;;;;;;;32.65;16.70;;;-4.10;99.90;;;;;;5080942;28;20560;-58
2021/12/22 07:34:37;;;;;;;38.83;18.05;;;-4.20;99.90;;;;;;5075383;28;20371;-59
2021/12/22 07:37:22;;;;;;;37.88;17.92;;;-4.10;99.90;;;;;;5076325;28;20047;-59
2021/12/22 07:39:48;;;;;;;37.83;17.90;;;-4.10;99.90;;;;;;5062513;28;20055;-59
2021/12/22 07:42:14;;;;;;;39.00;18.40;;;-4.20;99.90;;;;;;5072033;28;20036;-59
2021/12/22 07:44:40;;;;;;;39.88;18.20;;;-4.20;99.90;;;;;;5073479;28;20483;-59
2021/12/22 07:47:06;;;;;;;37.03;17.33;;;-4.20;99.90;;;;;;5088036;28;20036;-60
2021/12/22 07:49:32;;;;;;;38.47;17.55;;;-4.20;99.90;;;;;;5063949;28;20996;-59
2021/12/22 07:51:57;;;;;;;37.88;18.15;;;-4.20;99.90;;;;;;5056144;28;20037;-59
2021/12/22 07:54:23;;;;;;;35.67;16.83;;;-4.20;99.90;;;;;;5075229;28;20048;-58
2021/12/22 07:56:49;;;;;;;35.45;18.05;;;-4.20;99.90;;;;;;5081180;28;20078;-59
2021/12/22 07:59:15;;;;;;;36.28;17.27;;;-4.20;99.90;;;;;;5074549;28;20032;-58
2021/12/22 08:01:40;;;;;;;40.15;19.48;;;-4.20;99.90;;;;;;5090847;28;20031;-58
2021/12/22 08:04:06;;;;;;;38.65;19.05;;;-4.20;99.90;;;;;;5084781;28;20105;-59
2021/12/22 08:06:32;;;;;;;35.00;17.30;;;-4.20;99.90;;;;;;5076843;28;20399;-58
2021/12/22 08:08:58;;;;;;;37.30;17.25;;;-4.10;99.90;;;;;;5082996;28;20032;-59
2021/12/22 08:11:23;;;;;;;35.67;18.25;;;-4.10;99.90;;;;;;5076554;28;20037;-59
2021/12/22 08:13:49;;;;;;;39.53;18.10;;;-4.10;99.90;;;;;;5072230;28;20115;-59
2021/12/22 08:16:15;;;;;;;37.10;17.48;;;-4.10;99.90;;;;;;5058491;28;20036;-59
2021/12/22 08:18:41;;;;;;;38.95;16.25;;;-4.10;99.90;;;;;;5076405;28;20041;-59
2021/12/22 08:21:07;;;;;;;33.25;16.27;;;-4.10;99.90;;;;;;5075546;28;20039;-59
2021/12/22 08:23:33;;;;;;;34.88;17.48;;;-4.10;99.90;;;;;;5058363;28;20087;-57
2021/12/22 08:25:58;;;;;;;39.33;17.80;;;-4.00;99.90;;;;;;5078691;28;20055;-59
2021/12/22 08:28:24;;;;;;;34.90;16.35;;;-4.00;99.90;;;;;;5078446;28;20055;-58
2021/12/22 08:30:50;;;;;;;35.35;16.45;;;-4.00;99.90;;;;;;5076592;28;20040;-58
2021/12/22 08:33:26;;;;;;;37.97;17.33;;;-4.00;99.90;;;;;;5078734;28;20065;-58
2021/12/22 08:38:53;;;;;;;37.95;17.73;;;-3.90;99.90;;;;;;5079114;28;20091;-60
2021/12/22 08:41:19;;;;;;;33.97;17.52;;;-3.90;99.90;;;;;;5076990;28;20032;-59
2021/12/22 08:43:44;;;;;;;36.17;17.80;;;-3.90;99.90;;;;;;5078333;28;20055;-60
2021/12/22 08:46:10;;;;;;;35.60;17.17;;;-3.90;99.90;;;;;;5075872;28;20036;-60
2021/12/22 08:48:36;;;;;;;36.50;17.55;;;-3.80;99.90;;;;;;5077314;28;20044;-59
2021/12/22 08:51:01;;;;;;;36.33;16.17;;;-3.80;99.90;;;;;;5078532;28;20044;-58
2021/12/22 08:53:27;;;;;;;38.10;17.63;;;-3.80;99.90;;;;;;5078259;28;20511;-59
2021/12/22 08:55:53;;;;;;;39.53;16.45;;;-3.80;99.90;;;;;;5077015;28;20126;-59
2021/12/22 08:58:18;;;;;;;39.95;18.23;;;-3.70;99.90;;;;;;5073826;28;20046;-59
2021/12/22 09:00:44;;;;;;;35.25;16.95;;;-3.70;99.90;;;;;;5063538;28;20036;-59
2021/12/22 09:03:10;;;;;;;35.95;16.55;;;-3.40;99.90;;;;;;5050981;28;20036;-59
2021/12/22 09:05:35;;;;;;;32.00;16.08;;;-3.50;99.90;;;;;;5052844;28;20039;-59
2021/12/22 09:08:01;;;;;;;36.83;17.17;;;-3.60;99.90;;;;;;5052265;28;20045;-58
2021/12/22 09:10:27;;;;;;;36.58;18.25;;;-3.60;99.90;;;;;;5052135;28;20207;-59
2021/12/22 09:12:52;;;;;;;38.03;17.45;;;-3.50;99.90;;;;;;5050019;28;20093;-59
2021/12/22 09:15:19;;;;;;;40.55;17.05;;;-3.50;99.90;;;;;;5049625;28;20384;-59
2021/12/22 09:17:45;;;;;;;34.30;16.45;;;-3.50;99.90;;;;;;5050044;28;20071;-60
2021/12/22 09:20:11;;;;;;;36.65;17.63;;;-3.50;99.90;;;;;;5047820;28;20116;-58
2021/12/22 09:22:37;;;;;;;36.22;17.23;;;-3.50;99.90;;;;;;5047384;28;20036;-59
2021/12/22 09:25:03;;;;;;;36.38;17.23;;;-3.50;99.90;;;;;;5049762;28;20078;-60
2021/12/22 09:27:29;;;;;;;38.65;17.20;;;-3.40;99.90;;;;;;5050962;28;20585;-57
2021/12/22 09:29:56;;;;;;;39.95;17.02;;;-3.30;99.90;;;;;;5051241;28;20063;-59
2021/12/22 09:32:22;;;;;;;35.60;16.70;;;-3.30;99.90;;;;;;5051541;28;20032;-59
2021/12/22 09:34:49;;;;;;;38.60;17.77;;;-3.20;99.90;;;;;;5052360;28;20036;-59
2021/12/22 09:37:16;;;;;;;39.92;18.73;;;-3.20;99.90;;;;;;5058391;28;20537;-60
2021/12/22 09:39:42;;;;;;;34.92;17.35;;;-3.10;99.90;;;;;;5071917;28;20043;-59
2021/12/22 09:42:11;;;;;;;36.17;17.42;;;-3.00;99.90;;;;;;5073400;28;20032;-59
2021/12/22 09:44:44;;;;;;;36.47;16.92;;;-3.00;99.90;;;;;;5074588;28;20036;-60
2021/12/22 09:47:25;;;;;;;32.70;16.50;;;-3.00;99.90;;;;;;5068970;28;20072;-60
2021/12/22 09:52:34;;;;;;;35.47;17.15;;;-2.80;99.90;;;;;;5073659;28;20043;-59
2021/12/22 09:55:01;;;;;;;35.05;16.63;;;-2.80;99.90;;;;;;5072800;28;20036;-59
2021/12/22 09:57:28;;;;;;;36.05;17.65;;;-2.70;99.90;;;;;;5072420;28;21978;-59
2021/12/22 09:59:58;;;;;;;37.33;16.55;;;-2.70;99.90;;;;;;5070334;28;20492;-59
2021/12/22 10:02:28;;;;;;;34.78;17.35;;;-2.60;99.90;;;;;;5069114;28;20040;-60
2021/12/22 10:04:55;;;;;;;37.90;17.42;;;-2.60;99.90;;;;;;5069027;28;20043;-60
2021/12/22 10:07:26;;;;;;;39.17;17.73;;;-2.50;99.90;;;;;;5088272;28;20047;-60
2021/12/22 10:09:53;;;;;;;33.35;16.88;;;-2.40;99.90;;;;;;5086099;28;20375;-60
2021/12/22 10:12:22;;;;;;;32.60;16.52;;;-2.20;99.90;;;;;;5072389;28;20040;-60
2021/12/22 10:15:00;;;;;;;30.75;15.70;;;-2.10;99.90;;;;;;5069761;28;20040;-60
2021/12/22 10:17:26;;;;;;;33.78;15.27;;;-2.00;99.90;;;;;;5092340;28;20050;-60
2021/12/22 10:19:57;;;;;;;32.58;15.88;;;-2.00;99.90;;;;;;5086895;28;20506;-60
2021/12/22 10:22:49;;;;;;;31.85;15.15;;;-1.90;99.90;;;;;;5092424;28;20126;-61
2021/12/22 10:25:23;;;;;;;31.02;15.93;;;-2.50;99.90;;;;;;5085838;28;22855;-59
2021/12/22 10:28:09;;;;;;;31.25;15.93;;;-1.80;99.90;;;;;;5087530;28;20558;-59
2021/12/22 10:30:39;;;;;;;33.70;15.15;;;-1.70;99.90;;;;;;5090012;28;20074;-60
2021/12/22 10:33:25;;;;;;;30.60;14.88;;;-1.70;99.90;;;;;;5072852;28;20429;-60
2021/12/22 10:35:57;;;;;;;34.72;16.05;;;-1.60;99.90;;;;;;5095165;28;20048;-59
2021/12/22 10:38:25;;;;;;;34.42;15.65;;;-1.60;99.90;;;;;;5089185;28;20479;-59
2021/12/22 10:40:54;;;;;;;34.20;15.70;;;-1.50;99.90;;;;;;5068630;28;20040;-59
2021/12/22 10:43:22;;;;;;;30.98;15.27;;;-1.40;99.90;;;;;;5072986;28;20479;-60
2021/12/22 10:45:51;;;;;;;31.42;14.73;;;-1.30;99.90;;;;;;5071364;28;20135;-59
2021/12/22 10:51:30;;;;;;;31.30;14.93;;;-1.10;99.90;;;;;;5070872;28;20040;-60
2021/12/22 10:53:57;;;;;;;27.75;14.20;;;-1.00;99.90;;;;;;5070486;28;20040;-60
2021/12/22 10:56:31;;;;;;;30.48;14.23;;;-1.00;99.90;;;;;;5086565;28;20122;-60
2021/12/22 10:59:18;;;;;;;31.65;15.27;;;-1.00;99.90;;;;;;5089867;28;20032;-60
2021/12/22 11:01:53;;;;;;;27.15;14.45;;;-1.10;99.90;;;;;;5081686;28;20060;-60
2021/12/22 11:04:31;;;;;;;32.25;14.95;;;-1.20;99.90;;;;;;5084932;28;20089;-60
2021/12/22 11:07:15;;;;;;;30.77;15.15;;;-1.20;99.90;;;;;;5072957;28;20039;-59
2021/12/22 11:09:41;;;;;;;29.80;14.68;;;-1.30;99.90;;;;;;5089317;28;20116;-60
2021/12/22 11:12:07;;;;;;;33.95;14.93;;;-1.30;99.90;;;;;;5084817;28;20130;-60
2021/12/22 11:14:38;;;;;;;29.15;14.98;;;-1.30;99.90;;;;;;5090955;28;20063;-60
2021/12/22 11:17:10;;;;;;;29.95;14.38;;;-1.30;99.90;;;;;;5073135;28;20578;-61
2021/12/22 11:19:52;;;;;;;36.45;15.95;;;-1.20;99.90;;;;;;5086206;28;20444;-59
2021/12/22 11:22:24;;;;;;;27.08;14.18;;;-1.10;99.90;;;;;;5073444;28;20498;-59
2021/12/22 11:24:52;;;;;;;28.58;15.75;;;-1.10;99.90;;;;;;5087821;28;20046;-59
2021/12/22 11:27:23;;;;;;;30.40;14.45;;;-1.10;99.90;;;;;;5075797;28;20399;-59
2021/12/22 11:29:52;;;;;;;31.20;14.05;;;-1.10;99.90;;;;;;5075012;28;20040;-59
2021/12/22 11:32:21;;;;;;;31.83;15.65;;;-1.10;99.90;;;;;;5073983;28;20528;-59
2021/12/22 11:34:59;;;;;;;29.23;15.70;;;-1.10;99.90;;;;;;5071526;28;20513;-60
2021/12/22 11:37:25;;;;;;;29.55;15.95;;;-1.00;99.90;;;;;;5089565;28;20050;-60
2021/12/22 11:39:52;;;;;;;32.58;15.73;;;-1.00;99.90;;;;;;5113498;28;20440;-60
2021/12/22 11:42:22;;;;;;;28.80;15.07;;;-1.00;99.90;;;;;;5097126;28;20498;-60
2021/12/22 11:44:51;;;;;;;29.33;15.80;;;-0.90;99.90;;;;;;5094570;28;20039;-59
2021/12/22 11:47:17;;;;;;;31.88;15.68;;;-0.80;99.90;;;;;;5096478;28;20173;-59
2021/12/22 11:49:53;;;;;;;29.73;15.70;;;-0.60;99.90;;;;;;5095345;28;20039;-58
2021/12/22 11:52:37;;;;;;;27.80;13.77;;;-0.50;99.90;;;;;;5095166;28;20575;-59
2021/12/22 11:55:11;;;;;;;27.92;13.43;;;-0.40;99.90;;;;;;5112394;28;20092;-61
2021/12/22 11:57:37;;;;;;;26.80;14.25;;;-0.30;99.90;;;;;;5096995;28;20039;-59
2021/12/22 12:00:22;;;;;;;28.92;14.35;;;-0.30;99.90;;;;;;5111795;28;20088;-59
2021/12/22 12:02:48;;;;;;;25.80;12.73;;;-0.40;99.90;;;;;;5085558;28;20044;-59
2021/12/22 12:05:25;;;;;;;25.77;13.77;;;-0.40;99.90;;;;;;5100767;28;20379;-60
2021/12/22 12:07:56;;;;;;;28.08;14.13;;;-0.40;99.90;;;;;;5090612;28;20051;-59
2021/12/22 12:10:50;;;;;;;25.63;13.52;;;-0.50;99.90;;;;;;5090523;28;20115;-60
2021/12/22 12:13:25;;;;;;;30.83;14.07;;;-0.50;99.90;;;;;;5081420;28;20096;-59
2021/12/22 12:21:50;;;;;;;26.60;13.07;;;-0.40;99.90;;;;;;5082063;28;20050;-57
2021/12/22 12:24:44;;;;;;;25.05;13.48;;;-0.40;99.90;;;;;;5083404;28;20488;-58
2021/12/22 12:27:43;;;;;;;24.02;12.95;;;-0.40;99.90;;;;;;5083066;28;20048;-58
2021/12/22 12:30:36;;;;;;;29.48;13.80;;;-0.40;99.90;;;;;;5083303;28;20036;-59
2021/12/22 12:33:04;;;;;;;25.25;12.52;;;-0.30;99.90;;;;;;5082338;28;20127;-59
2021/12/22 12:35:33;;;;;;;28.23;14.48;;;-0.20;99.90;;;;;;5062843;28;20569;-59
2021/12/22 12:38:01;;;;;;;24.95;13.35;;;-1.30;99.90;;;;;;5072133;28;20296;-59
2021/12/22 12:40:55;;;;;;;24.85;13.43;;;-0.10;99.90;;;;;;5075928;28;20051;-59
2021/12/22 12:43:47;;;;;;;23.02;13.20;;;-0.10;99.90;;;;;;5083050;28;20488;-59
2021/12/22 12:46:19;;;;;;;26.73;13.27;;;-0.10;99.90;;;;;;5082772;28;20048;-59
2021/12/22 12:48:52;;;;;;;25.70;13.25;;;-0.10;99.90;;;;;;5091894;28;20039;-59
2021/12/22 12:51:30;;;;;;;28.92;12.77;;;-0.10;99.90;;;;;;5074188;28;20044;-58
2021/12/22 12:54:02;;;;;;;24.83;12.90;;;0.00;99.90;;;;;;5075538;28;20040;-59
2021/12/22 12:56:33;;;;;;;25.50;14.18;;;0.00;99.90;;;;;;5077011;28;20048;-59
2021/12/22 12:59:08;;;;;;;29.17;13.90;;;1.00;99.90;;;;;;5091234;28;20055;-59
2021/12/22 13:01:46;;;;;;;25.95;14.48;;;0.10;99.90;;;;;;5092267;28;20033;-59
2021/12/22 13:04:33;;;;;;;25.48;13.95;;;0.10;99.90;;;;;;5082127;28;20047;-59
2021/12/22 13:07:12;;;;;;;26.83;14.07;;;0.20;99.90;;;;;;5091174;28;20043;-59